Time;durP1;ratioP1;P1;durP2;ratioP2;P2;SDS_P1;SDS_P2;PMS_P1;PMS_P2;Temp;Humidity;BMP_temperature;BMP_pressure;BME280_temperature;BME280_humidity;BME280_pressure;Samples;Min_cycle;Max_cycle;Signal;HPM_P1;HPM_P2
2022/06/02 00:00:21;;;;;;;12.67;11.17;;;11.50;99.90;;;;;;5019466;28;20203;-85
2022/06/02 00:03:09;;;;;;;11.70;10.60;;;11.40;99.90;;;;;;5035783;28;20214;-85
2022/06/02 00:05:55;;;;;;;12.63;11.33;;;11.40;99.90;;;;;;5035351;28;20211;-86
2022/06/02 00:08:33;;;;;;;13.10;11.80;;;11.40;99.90;;;;;;5035580;28;20226;-85
2022/06/02 00:11:18;;;;;;;13.07;11.50;;;11.40;99.90;;;;;;5035598;28;20195;-86
2022/06/02 00:13:55;;;;;;;11.13;10.13;;;11.30;99.90;;;;;;5035416;28;20310;-86
2022/06/02 00:16:31;;;;;;;13.23;11.43;;;11.30;99.90;;;;;;5035419;28;20194;-86
2022/06/02 00:19:03;;;;;;;14.60;13.30;;;11.30;99.90;;;;;;5034591;28;20431;-85
2022/06/02 00:21:38;;;;;;;13.53;12.20;;;11.20;99.90;;;;;;5035302;28;20555;-86
2022/06/02 00:24:13;;;;;;;13.80;12.37;;;11.20;99.90;;;;;;5035075;28;20214;-86
2022/06/02 00:26:46;;;;;;;13.33;11.87;;;11.00;99.90;;;;;;5035442;28;20222;-86
2022/06/02 00:29:25;;;;;;;12.53;11.23;;;11.10;99.90;;;;;;5035034;28;20254;-84
2022/06/02 00:31:59;;;;;;;13.07;11.77;;;10.90;99.90;;;;;;5035672;28;20552;-86
2022/06/02 00:34:32;;;;;;;13.07;11.83;;;10.90;99.90;;;;;;5034711;28;20611;-86
2022/06/02 00:37:20;;;;;;;15.43;12.27;;;11.00;99.90;;;;;;5034635;28;20265;-86
2022/06/02 00:39:49;;;;;;;16.45;14.90;;;10.90;99.90;;;;;;5033653;28;20439;-86
2022/06/02 00:42:39;;;;;;;15.30;13.80;;;11.20;99.90;;;;;;5034782;28;20208;-86
2022/06/02 00:45:09;;;;;;;15.40;13.20;;;11.10;99.90;;;;;;5034866;28;20214;-86
2022/06/02 00:47:53;;;;;;;14.27;12.87;;;11.00;99.90;;;;;;5017120;28;20211;-86
2022/06/02 00:50:38;;;;;;;14.87;13.27;;;10.80;99.90;;;;;;5034295;28;20207;-86
2022/06/02 00:53:13;;;;;;;16.47;13.07;;;10.70;99.90;;;;;;5034927;28;20203;-86
2022/06/02 00:58:36;;;;;;;17.23;13.97;;;10.70;99.90;;;;;;5034284;28;20661;-86
2022/06/02 01:01:09;;;;;;;15.97;14.07;;;10.80;99.90;;;;;;5033958;28;20203;-86
2022/06/02 01:03:41;;;;;;;17.07;13.50;;;10.70;99.90;;;;;;5034413;28;20215;-85
2022/06/02 01:06:45;;;;;;;14.87;12.93;;;10.70;99.90;;;;;;5034466;28;20219;-86
2022/06/02 01:09:42;;;;;;;15.33;13.33;;;10.60;99.90;;;;;;5029602;28;20226;-85
2022/06/02 01:12:31;;;;;;;17.93;14.10;;;10.60;99.90;;;;;;5034995;28;20579;-86
2022/06/02 01:15:07;;;;;;;15.13;13.10;;;10.50;99.90;;;;;;5029133;28;20572;-86
2022/06/02 01:17:45;;;;;;;16.67;14.82;;;10.40;99.90;;;;;;5034292;28;20450;-86
2022/06/02 01:20:30;;;;;;;14.87;13.37;;;10.50;99.90;;;;;;5034289;28;20662;-86
2022/06/02 01:23:23;;;;;;;15.37;13.87;;;10.50;99.90;;;;;;5034601;28;20257;-86
2022/06/02 01:26:20;;;;;;;14.17;12.73;;;10.40;99.90;;;;;;5033852;28;20223;-86
2022/06/02 01:28:59;;;;;;;14.67;12.73;;;10.40;99.90;;;;;;5010669;28;20326;-86
2022/06/02 01:31:44;;;;;;;15.13;13.53;;;10.40;99.90;;;;;;5033901;28;20210;-86
2022/06/02 01:34:30;;;;;;;16.33;14.70;;;10.20;99.90;;;;;;5034101;28;20278;-86
2022/06/02 01:37:03;;;;;;;14.90;13.47;;;10.20;99.90;;;;;;5034429;28;20647;-86
2022/06/02 01:39:44;;;;;;;15.87;14.17;;;10.10;99.90;;;;;;5033892;28;20257;-86
2022/06/02 01:42:22;;;;;;;19.97;15.17;;;10.20;99.90;;;;;;5033977;28;20191;-86
2022/06/02 01:44:58;;;;;;;15.23;13.63;;;10.10;99.90;;;;;;5023172;28;20207;-86
2022/06/02 01:47:34;;;;;;;17.63;13.47;;;10.10;99.90;;;;;;4980568;28;20651;-86
2022/06/02 01:50:15;;;;;;;15.93;14.23;;;10.00;99.90;;;;;;4996354;28;20246;-86
2022/06/02 01:52:57;;;;;;;15.17;13.57;;;9.90;99.90;;;;;;5014190;28;20214;-86
2022/06/02 01:55:42;;;;;;;16.33;13.73;;;10.00;99.90;;;;;;5013753;28;20685;-86
2022/06/02 01:58:25;;;;;;;19.00;17.10;;;10.00;99.90;;;;;;5013470;28;21050;-86
2022/06/02 02:01:02;;;;;;;16.97;15.30;;;10.10;99.90;;;;;;5013612;28;20208;-86
2022/06/02 02:03:39;;;;;;;15.83;14.07;;;10.10;99.90;;;;;;5014013;28;20662;-86
2022/06/02 02:06:15;;;;;;;16.37;14.63;;;10.10;99.90;;;;;;5013916;28;20215;-86
2022/06/02 02:08:55;;;;;;;17.87;14.70;;;10.10;99.90;;;;;;5014008;28;20593;-86
2022/06/02 02:11:39;;;;;;;20.33;14.57;;;10.00;99.90;;;;;;5014148;28;20196;-87
2022/06/02 02:14:19;;;;;;;15.00;13.50;;;10.00;99.90;;;;;;5020489;28;20203;-86
2022/06/02 02:16:52;;;;;;;15.57;13.73;;;9.90;99.90;;;;;;5002707;28;20270;-86
2022/06/02 02:19:39;;;;;;;15.43;13.83;;;9.70;99.90;;;;;;5020720;28;20215;-86
2022/06/02 02:22:16;;;;;;;15.43;13.73;;;9.60;99.90;;;;;;5020786;28;20211;-86
2022/06/02 02:24:54;;;;;;;16.50;14.47;;;9.60;99.90;;;;;;5020348;28;20214;-87
2022/06/02 02:27:27;;;;;;;15.70;13.97;;;9.60;99.90;;;;;;5020546;28;20192;-86
2022/06/02 02:30:06;;;;;;;16.80;15.20;;;9.70;99.90;;;;;;5020154;28;20754;-86
2022/06/02 02:32:42;;;;;;;16.00;14.13;;;9.70;99.90;;;;;;5020095;28;20207;-86
2022/06/02 02:35:16;;;;;;;16.07;14.47;;;9.70;99.90;;;;;;5020652;28;20206;-86
2022/06/02 02:37:50;;;;;;;17.92;16.13;;;9.60;99.90;;;;;;5019837;28;20927;-87
2022/06/02 02:40:25;;;;;;;17.90;16.10;;;9.60;99.90;;;;;;5020200;28;20203;-87
2022/06/02 02:42:57;;;;;;;16.80;14.63;;;9.60;99.90;;;;;;5019948;28;20221;-87
2022/06/02 02:45:36;;;;;;;18.20;14.80;;;9.50;99.90;;;;;;5020276;28;20218;-87
2022/06/02 02:48:14;;;;;;;16.53;14.90;;;9.30;99.90;;;;;;5019795;28;20214;-87
2022/06/02 02:50:51;;;;;;;19.67;14.67;;;9.30;99.90;;;;;;5019877;28;20215;-87
2022/06/02 02:53:22;;;;;;;17.03;15.30;;;9.40;99.90;;;;;;5020376;28;20291;-87
2022/06/02 02:55:55;;;;;;;16.97;15.17;;;9.30;99.90;;;;;;5020210;28;20211;-87
2022/06/02 02:58:28;;;;;;;20.48;18.42;;;9.40;99.90;;;;;;5019682;28;20444;-87
2022/06/02 03:01:02;;;;;;;17.90;16.10;;;9.50;99.90;;;;;;5019776;28;20254;-87
2022/06/02 03:03:36;;;;;;;16.67;14.97;;;9.40;99.90;;;;;;5020089;28;20207;-87
2022/06/02 03:06:19;;;;;;;19.10;15.67;;;9.20;99.90;;;;;;5020049;28;20312;-87
2022/06/02 03:08:51;;;;;;;17.30;15.60;;;9.20;99.90;;;;;;5019865;28;20207;-87
2022/06/02 03:11:46;;;;;;;17.73;15.70;;;9.30;99.90;;;;;;5020468;28;20257;-86
2022/06/02 03:14:25;;;;;;;20.47;15.17;;;9.20;99.90;;;;;;5019669;28;20286;-87
2022/06/02 03:16:59;;;;;;;17.87;15.77;;;9.30;99.90;;;;;;5020294;28;20208;-87
2022/06/02 03:19:37;;;;;;;22.30;20.00;;;9.20;99.90;;;;;;5019763;28;20436;-87
2022/06/02 03:22:13;;;;;;;18.00;15.70;;;9.50;99.90;;;;;;5020132;28;20198;-86
2022/06/02 03:24:49;;;;;;;17.87;15.97;;;9.30;99.90;;;;;;5016772;28;20212;-87
2022/06/02 03:27:33;;;;;;;17.67;15.87;;;9.30;99.90;;;;;;5016591;28;20207;-87
2022/06/02 03:30:13;;;;;;;17.97;16.13;;;9.10;99.90;;;;;;5016366;28;20227;-87
2022/06/02 03:32:58;;;;;;;17.83;15.37;;;9.00;99.90;;;;;;4999001;28;20210;-87
2022/06/02 03:35:30;;;;;;;18.73;16.73;;;9.10;99.90;;;;;;5016738;28;20648;-87
2022/06/02 03:38:12;;;;;;;18.03;16.13;;;9.00;99.90;;;;;;5016674;28;20214;-87
2022/06/02 03:41:11;;;;;;;18.33;16.43;;;9.10;99.90;;;;;;5016872;28;20211;-87
2022/06/02 03:43:47;;;;;;;21.03;15.80;;;9.00;99.90;;;;;;5015936;28;20678;-86
2022/06/02 03:46:21;;;;;;;20.93;16.67;;;9.10;99.90;;;;;;4998751;28;20210;-87
2022/06/02 03:49:15;;;;;;;20.30;16.73;;;8.90;99.90;;;;;;5016233;28;20214;-87
2022/06/02 03:51:47;;;;;;;20.93;17.47;;;9.00;99.90;;;;;;5016247;28;20207;-86
2022/06/02 03:54:43;;;;;;;18.40;16.37;;;9.00;99.90;;;;;;5016211;28;20208;-86
2022/06/02 03:57:23;;;;;;;19.50;16.93;;;9.00;99.90;;;;;;5018884;28;20197;-86
2022/06/02 04:00:18;;;;;;;21.40;17.33;;;9.00;99.90;;;;;;5016741;28;20231;-87
2022/06/02 04:02:51;;;;;;;20.53;16.77;;;9.00;99.90;;;;;;5014605;28;20199;-86
2022/06/02 04:05:29;;;;;;;19.00;16.60;;;9.10;99.90;;;;;;5015814;28;20212;-87
2022/06/02 04:08:08;;;;;;;19.50;16.10;;;8.90;99.90;;;;;;5015970;28;20212;-86
2022/06/02 04:10:48;;;;;;;21.70;17.50;;;8.90;99.90;;;;;;5015987;28;20654;-87
2022/06/02 04:13:37;;;;;;;19.37;16.20;;;8.90;99.90;;;;;;5015666;28;20218;-87
2022/06/02 04:16:23;;;;;;;19.47;15.67;;;8.90;99.90;;;;;;5016057;28;20653;-87
2022/06/02 04:20:34;;;;;;;18.23;14.43;;;8.80;99.90;;;;;;4995402;28;20226;-87
2022/06/02 04:21:54;;;;;;;18.10;14.13;;;8.70;99.90;;;;;;5015457;28;20192;-87
2022/06/02 04:24:29;;;;;;;18.13;14.50;;;8.70;99.90;;;;;;5015693;28;20690;-87
2022/06/02 04:27:18;;;;;;;15.20;13.70;;;8.80;99.90;;;;;;5015322;28;20238;-87
2022/06/02 04:30:00;;;;;;;19.80;14.77;;;8.90;99.90;;;;;;5015276;28;20227;-87
2022/06/02 04:32:39;;;;;;;15.37;13.77;;;9.10;99.90;;;;;;5015544;28;20200;-87
2022/06/02 04:35:20;;;;;;;15.20;13.60;;;9.30;99.90;;;;;;5014599;28;20208;-87
2022/06/02 04:37:56;;;;;;;17.30;14.57;;;9.40;99.90;;;;;;5015117;28;20188;-87
2022/06/02 04:40:36;;;;;;;16.07;14.47;;;9.40;99.90;;;;;;5013880;28;20208;-87
2022/06/02 04:43:11;;;;;;;14.73;13.20;;;9.30;99.90;;;;;;5014506;28;20231;-87
2022/06/02 04:45:49;;;;;;;18.50;15.73;;;9.40;99.90;;;;;;5015118;28;20679;-87
2022/06/02 04:48:29;;;;;;;17.00;15.07;;;9.50;99.90;;;;;;5015572;28;20192;-87
2022/06/02 04:51:06;;;;;;;17.23;15.00;;;9.60;99.90;;;;;;5015497;28;20227;-87
2022/06/02 04:53:44;;;;;;;25.67;16.43;;;9.70;99.90;;;;;;4998085;28;20211;-87
2022/06/02 04:56:19;;;;;;;17.00;15.30;;;9.70;99.90;;;;;;5014827;28;20552;-87
2022/06/02 04:58:54;;;;;;;19.37;15.37;;;9.80;99.90;;;;;;5014867;28;20207;-87
2022/06/02 05:01:38;;;;;;;19.53;15.90;;;9.70;99.90;;;;;;5020225;28;20212;-86
2022/06/02 05:04:19;;;;;;;17.10;15.27;;;9.80;99.90;;;;;;5034674;28;20209;-87
2022/06/02 05:06:50;;;;;;;20.00;15.63;;;10.10;99.90;;;;;;5032997;28;20210;-87
2022/06/02 05:09:26;;;;;;;18.67;16.63;;;10.10;99.90;;;;;;5034431;28;20206;-87
2022/06/02 05:12:10;;;;;;;19.03;17.00;;;10.30;99.90;;;;;;5034578;28;20199;-87
2022/06/02 05:14:46;;;;;;;17.63;15.83;;;10.50;99.90;;;;;;5041435;28;20210;-87
2022/06/02 05:17:36;;;;;;;18.67;16.77;;;10.60;99.90;;;;;;5046074;28;20214;-86
2022/06/02 05:20:23;;;;;;;19.80;17.23;;;10.80;99.90;;;;;;5030166;28;20671;-86
2022/06/02 05:23:18;;;;;;;24.95;22.45;;;10.90;99.90;;;;;;5045037;28;20428;-86
2022/06/02 05:26:16;;;;;;;20.60;18.50;;;11.20;99.90;;;;;;5038395;28;20706;-86
2022/06/02 05:29:06;;;;;;;22.27;18.63;;;11.20;99.90;;;;;;5043321;28;20203;-86
2022/06/02 05:32:00;;;;;;;21.00;18.30;;;11.30;99.90;;;;;;5033817;28;20230;-86
2022/06/02 05:35:04;;;;;;;21.40;17.10;;;11.40;99.90;;;;;;5034202;28;20302;-87
2022/06/02 05:37:45;;;;;;;19.00;16.47;;;11.50;99.90;;;;;;5016329;28;20203;-86
2022/06/02 05:40:27;;;;;;;21.13;16.90;;;11.60;99.90;;;;;;5015898;28;20233;-86
2022/06/02 05:43:11;;;;;;;20.67;16.90;;;11.70;99.90;;;;;;5033815;28;20207;-86
2022/06/02 05:45:57;;;;;;;21.90;16.83;;;11.80;99.90;;;;;;5033542;28;20681;-86
2022/06/02 05:48:43;;;;;;;17.37;15.57;;;12.00;99.90;;;;;;5033815;28;20202;-86
2022/06/02 05:51:23;;;;;;;20.20;16.50;;;12.10;99.90;;;;;;5033627;28;20239;-86
2022/06/02 05:54:02;;;;;;;18.67;16.43;;;12.00;99.90;;;;;;5033357;28;20679;-85
2022/06/02 05:56:39;;;;;;;19.77;17.30;;;12.30;99.90;;;;;;5033724;28;20215;-86
2022/06/02 05:59:37;;;;;;;20.37;18.10;;;12.50;99.90;;;;;;5036615;28;20251;-90
2022/06/02 06:02:23;;;;;;;24.87;18.83;;;12.60;99.90;;;;;;5040529;28;20201;-90
2022/06/02 06:05:08;;;;;;;25.15;22.60;;;12.80;99.90;;;;;;5038761;28;20923;-90
2022/06/02 06:07:58;;;;;;;20.60;17.70;;;13.00;99.90;;;;;;5037118;28;20206;-89
2022/06/02 06:10:34;;;;;;;18.10;16.40;;;13.10;99.90;;;;;;5023319;28;20239;-86
2022/06/02 06:13:13;;;;;;;18.50;16.57;;;13.00;99.90;;;;;;5043596;28;20216;-86
2022/06/02 06:15:48;;;;;;;19.70;16.40;;;13.20;99.90;;;;;;5041473;28;20203;-87
2022/06/02 06:18:32;;;;;;;17.50;15.67;;;13.20;99.90;;;;;;5040918;28;20205;-87
2022/06/02 06:21:11;;;;;;;18.07;16.17;;;13.30;99.90;;;;;;5042153;28;20210;-89
2022/06/02 06:23:57;;;;;;;20.20;16.97;;;13.50;99.90;;;;;;5043971;28;20791;-86
2022/06/02 06:26:33;;;;;;;16.27;14.67;;;13.70;99.90;;;;;;5039428;28;20237;-89
2022/06/02 06:29:13;;;;;;;19.00;16.53;;;13.70;99.90;;;;;;5036668;28;20202;-86
2022/06/02 06:31:54;;;;;;;17.17;15.53;;;13.90;99.90;;;;;;5040622;28;20256;-88
2022/06/02 06:34:40;;;;;;;13.73;12.20;;;13.90;99.90;;;;;;5035029;28;20190;-87
2022/06/02 06:37:40;;;;;;;13.40;11.93;;;13.50;99.90;;;;;;5037703;28;20281;-85
2022/06/02 06:40:22;;;;;;;18.27;11.40;;;13.50;99.90;;;;;;5034803;28;20214;-91
2022/06/02 06:43:04;;;;;;;14.13;12.77;;;13.70;99.90;;;;;;5034081;28;20213;-88
2022/06/02 06:45:37;;;;;;;15.65;14.05;;;13.60;99.90;;;;;;5035658;28;20426;-89
2022/06/02 06:48:19;;;;;;;14.23;12.73;;;13.60;99.90;;;;;;5035021;28;20282;-89
2022/06/02 06:50:52;;;;;;;16.10;13.70;;;13.70;99.90;;;;;;5033729;28;20241;-86
2022/06/02 06:53:32;;;;;;;14.30;12.30;;;13.70;99.90;;;;;;5033945;28;20241;-86
2022/06/02 06:56:06;;;;;;;13.10;11.90;;;13.70;99.90;;;;;;5036803;28;20638;-90
2022/06/02 06:58:43;;;;;;;12.73;8.67;;;13.70;99.90;;;;;;5035996;28;20198;-90
2022/06/02 07:01:19;;;;;;;9.03;8.23;;;13.70;99.90;;;;;;5039146;28;20202;-85
2022/06/02 07:03:55;;;;;;;11.07;8.43;;;13.50;99.90;;;;;;5041401;28;20210;-88
2022/06/02 07:06:31;;;;;;;7.80;6.70;;;13.50;99.90;;;;;;5040460;28;20569;-82
2022/06/02 07:09:07;;;;;;;8.90;8.17;;;13.70;99.90;;;;;;5038491;28;20193;-84
2022/06/02 07:14:43;;;;;;;10.27;7.83;;;14.20;99.90;;;;;;5039352;28;20190;-87
2022/06/02 07:17:20;;;;;;;8.47;7.20;;;14.10;99.90;;;;;;5037336;28;20187;-86
2022/06/02 07:19:57;;;;;;;7.13;6.43;;;14.40;99.90;;;;;;5037121;28;20206;-88
2022/06/02 07:22:30;;;;;;;7.10;6.40;;;14.50;99.90;;;;;;5037129;28;20210;-89
2022/06/02 07:25:09;;;;;;;7.17;6.53;;;14.60;99.90;;;;;;5036936;28;20588;-87
2022/06/02 07:27:42;;;;;;;13.07;7.77;;;14.90;99.90;;;;;;5036546;28;20198;-91
2022/06/02 07:30:35;;;;;;;11.05;10.13;;;15.20;99.90;;;;;;5036065;28;20453;-87
2022/06/02 07:33:29;;;;;;;19.67;7.90;;;15.20;99.90;;;;;;5037001;28;20195;-88
2022/06/02 07:36:20;;;;;;;6.97;6.47;;;15.40;99.90;;;;;;5030194;28;20218;-87
2022/06/02 07:39:21;;;;;;;7.80;7.07;;;15.60;99.90;;;;;;5036651;28;20218;-87
2022/06/02 07:42:17;;;;;;;6.97;6.37;;;15.70;99.90;;;;;;5012010;28;20213;-87
2022/06/02 07:45:04;;;;;;;6.53;5.33;;;15.80;99.90;;;;;;5036805;28;20210;-88
2022/06/02 07:48:06;;;;;;;7.17;6.53;;;15.60;99.90;;;;;;5036568;28;20206;-88
2022/06/02 07:50:45;;;;;;;8.27;7.47;;;15.50;99.90;;;;;;5036367;28;20226;-87
2022/06/02 07:53:15;;;;;;;9.17;7.57;;;15.80;99.90;;;;;;5036750;28;20281;-89
2022/06/02 07:55:54;;;;;;;8.50;7.63;;;15.80;99.90;;;;;;5037385;28;20213;-88
2022/06/02 07:58:39;;;;;;;8.30;7.53;;;16.00;99.90;;;;;;5036519;28;20653;-86
2022/06/02 08:01:13;;;;;;;7.90;7.20;;;15.90;99.90;;;;;;5036632;28;20207;-88
2022/06/02 08:04:00;;;;;;;7.63;6.83;;;16.00;99.90;;;;;;5035815;28;20570;-87
2022/06/02 08:06:36;;;;;;;8.20;7.40;;;15.80;99.90;;;;;;5036103;28;20224;-88
2022/06/02 08:09:50;;;;;;;7.57;6.93;;;16.20;99.90;;;;;;5036169;28;20273;-86
2022/06/02 08:12:26;;;;;;;8.63;7.93;;;16.20;99.90;;;;;;5036361;28;20236;-87
2022/06/02 08:15:07;;;;;;;8.98;8.20;;;16.30;99.90;;;;;;5035177;28;20940;-87
2022/06/02 08:17:39;;;;;;;8.30;7.63;;;16.10;99.90;;;;;;5035979;28;20650;-87
2022/06/02 08:20:19;;;;;;;10.73;7.13;;;16.20;99.90;;;;;;5036110;28;20289;-86
2022/06/02 08:22:56;;;;;;;7.10;6.50;;;16.30;99.90;;;;;;5035900;28;20239;-87
2022/06/02 08:25:27;;;;;;;7.00;6.20;;;16.40;99.90;;;;;;5035525;28;20230;-86
2022/06/02 08:28:31;;;;;;;7.13;6.53;;;16.60;99.90;;;;;;5037234;28;20209;-87
2022/06/02 08:31:10;;;;;;;8.83;7.50;;;16.30;99.90;;;;;;5036823;28;20252;-87
2022/06/02 08:33:46;;;;;;;8.03;6.67;;;16.60;99.90;;;;;;5035482;28;20201;-86
2022/06/02 08:36:16;;;;;;;7.37;6.67;;;17.10;99.90;;;;;;5035647;28;20202;-87
2022/06/02 08:39:13;;;;;;;6.10;5.60;;;17.00;99.90;;;;;;5035588;28;20202;-86
2022/06/02 08:42:09;;;;;;;6.70;5.97;;;17.00;99.90;;;;;;5035788;28;20206;-87
2022/06/02 08:45:25;;;;;;;6.53;5.37;;;17.10;99.90;;;;;;5023238;28;20211;-88
2022/06/02 08:48:19;;;;;;;6.27;5.77;;;17.00;99.90;;;;;;4974839;28;20248;-87
2022/06/02 08:51:26;;;;;;;6.13;5.73;;;16.90;99.90;;;;;;5032688;28;20225;-87
2022/06/02 08:54:29;;;;;;;5.27;4.97;;;16.80;99.90;;;;;;5035778;28;20212;-87
2022/06/02 08:57:24;;;;;;;5.10;4.63;;;16.90;99.90;;;;;;5032883;28;20210;-89
2022/06/02 09:00:27;;;;;;;5.37;4.07;;;17.30;99.90;;;;;;5035496;28;20210;-86
2022/06/02 09:03:28;;;;;;;4.77;4.33;;;17.40;99.90;;;;;;5035975;28;20221;-86
2022/06/02 09:06:41;;;;;;;4.20;3.90;;;17.60;99.90;;;;;;5036200;28;20211;-88
2022/06/02 09:09:45;;;;;;;3.77;3.20;;;17.90;99.90;;;;;;5035515;28;20651;-86
2022/06/02 09:12:43;;;;;;;4.27;3.30;;;17.90;99.90;;;;;;5018440;28;20231;-88
2022/06/02 09:15:38;;;;;;;4.27;3.77;;;17.90;99.90;;;;;;5035342;28;20273;-88
2022/06/02 09:18:17;;;;;;;3.40;2.97;;;17.50;99.90;;;;;;5034880;28;20218;-87
2022/06/02 09:20:55;;;;;;;2.60;2.40;;;17.80;99.90;;;;;;5032334;28;20247;-86
2022/06/02 09:23:46;;;;;;;3.30;3.00;;;18.00;99.90;;;;;;5034181;28;20213;-88
2022/06/02 09:26:52;;;;;;;3.33;2.93;;;17.80;99.90;;;;;;5034739;28;20286;-87
2022/06/02 09:29:23;;;;;;;3.77;3.03;;;17.60;99.90;;;;;;4974303;28;20208;-86
2022/06/02 09:32:27;;;;;;;3.67;3.37;;;17.60;99.90;;;;;;4973979;28;20601;-87
2022/06/02 09:35:21;;;;;;;4.70;2.90;;;17.50;99.90;;;;;;4965109;28;20212;-85
2022/06/02 09:38:31;;;;;;;3.63;3.20;;;17.90;99.90;;;;;;5016703;28;20215;-86
2022/06/02 09:41:17;;;;;;;2.53;2.40;;;17.70;99.90;;;;;;5035278;28;20203;-85
2022/06/02 09:44:04;;;;;;;2.80;2.60;;;17.80;99.90;;;;;;5035087;28;20294;-88
2022/06/02 09:47:03;;;;;;;2.37;2.27;;;18.00;99.90;;;;;;5034833;28;20203;-86
2022/06/02 09:50:07;;;;;;;2.70;2.50;;;18.00;99.90;;;;;;5038467;28;20210;-85
2022/06/02 09:52:54;;;;;;;4.23;2.60;;;18.00;99.90;;;;;;5037186;28;20294;-88
2022/06/02 09:55:40;;;;;;;2.93;2.73;;;18.00;99.90;;;;;;5035512;28;20191;-85
2022/06/02 09:58:30;;;;;;;2.70;2.50;;;17.80;99.90;;;;;;5035267;28;20195;-88
2022/06/02 10:01:11;;;;;;;2.70;2.50;;;17.50;99.90;;;;;;5034658;28;20215;-87
2022/06/02 10:04:11;;;;;;;2.83;2.20;;;17.90;99.90;;;;;;5034274;28;20269;-87
2022/06/02 10:07:17;;;;;;;2.27;2.10;;;18.00;99.90;;;;;;5034138;28;20221;-88
2022/06/02 10:10:10;;;;;;;3.00;2.10;;;17.80;99.90;;;;;;5029264;28;20658;-85
2022/06/02 10:12:58;;;;;;;2.37;2.13;;;17.70;99.90;;;;;;5034120;28;20231;-86
2022/06/02 10:15:43;;;;;;;4.13;3.43;;;17.70;99.90;;;;;;5034899;28;20597;-86
2022/06/02 10:18:30;;;;;;;3.30;3.00;;;17.70;99.90;;;;;;5037665;28;20210;-86
2022/06/02 10:21:10;;;;;;;3.13;2.10;;;17.80;99.90;;;;;;5034764;28;20218;-86
2022/06/02 10:24:07;;;;;;;2.33;1.80;;;18.10;99.90;;;;;;5035414;28;20210;-86
2022/06/02 10:26:48;;;;;;;2.60;2.50;;;18.20;99.90;;;;;;5034693;28;20230;-87
2022/06/02 10:29:56;;;;;;;3.77;2.10;;;17.70;99.90;;;;;;5034749;28;20218;-87
2022/06/02 10:33:03;;;;;;;4.10;2.50;;;17.50;99.90;;;;;;5034550;28;20764;-87
2022/06/02 10:36:18;;;;;;;4.00;2.33;;;17.70;99.90;;;;;;4974696;28;20605;-86
2022/06/02 10:39:02;;;;;;;2.10;1.90;;;17.90;99.90;;;;;;4968337;28;20210;-85
2022/06/02 10:41:49;;;;;;;3.83;2.10;;;18.20;99.90;;;;;;5038534;28;20254;-87
2022/06/02 10:44:20;;;;;;;3.00;2.80;;;18.40;99.90;;;;;;5038159;28;20197;-87
2022/06/02 10:47:22;;;;;;;3.67;2.20;;;18.30;99.90;;;;;;5037988;28;20204;-86
2022/06/02 10:50:09;;;;;;;3.87;2.30;;;18.20;99.90;;;;;;5036467;28;20188;-87
2022/06/02 10:53:13;;;;;;;2.70;2.50;;;17.90;99.90;;;;;;5037009;28;20231;-83
2022/06/02 10:56:13;;;;;;;2.67;2.20;;;18.00;99.90;;;;;;5046296;28;20208;-91
2022/06/02 10:59:13;;;;;;;2.60;2.40;;;18.20;99.90;;;;;;5021430;28;20812;-91
2022/06/02 11:02:46;;;;;;;3.17;2.50;;;18.50;99.90;;;;;;5025100;28;20209;-88
2022/06/02 11:05:52;;;;;;;3.73;2.53;;;18.80;99.90;;;;;;5031825;28;20584;-90
2022/06/02 11:09:10;;;;;;;2.93;2.47;;;18.60;99.90;;;;;;5039213;28;20215;-90
2022/06/02 11:12:01;;;;;;;2.80;2.60;;;18.90;99.90;;;;;;4955293;29;20236;-89
2022/06/02 11:15:08;;;;;;;3.87;2.67;;;18.70;99.90;;;;;;5033110;28;20214;-90
2022/06/02 11:18:15;;;;;;;2.63;2.20;;;18.50;99.90;;;;;;5045711;28;20208;-92
2022/06/02 11:21:21;;;;;;;2.47;2.27;;;18.50;99.90;;;;;;5007500;28;20226;-92
2022/06/02 11:24:33;;;;;;;3.20;2.47;;;18.90;99.90;;;;;;5031497;28;20253;-91
2022/06/02 11:27:30;;;;;;;2.60;2.00;;;19.20;99.90;;;;;;4989569;28;20206;-92
2022/06/02 11:30:35;;;;;;;2.50;2.03;;;19.40;99.90;;;;;;5044317;28;20203;-93
2022/06/02 11:33:38;;;;;;;2.53;2.33;;;19.50;99.90;;;;;;5019670;28;20237;-91
2022/06/02 11:36:36;;;;;;;2.53;2.10;;;19.00;99.90;;;;;;5025653;28;20202;-91
2022/06/02 11:39:32;;;;;;;3.87;2.60;;;19.20;99.90;;;;;;5036969;28;20252;-89
2022/06/02 11:42:11;;;;;;;4.03;3.00;;;19.20;99.90;;;;;;5027744;28;20208;-89
2022/06/02 11:44:54;;;;;;;2.90;2.70;;;19.30;99.90;;;;;;5041046;28;20198;-91
2022/06/02 11:47:49;;;;;;;5.40;2.73;;;19.50;99.90;;;;;;5036613;28;20204;-89
2022/06/02 11:50:54;;;;;;;5.00;3.07;;;19.30;99.90;;;;;;5021706;28;20211;-89
2022/06/02 11:53:44;;;;;;;2.90;2.03;;;19.20;99.90;;;;;;5039206;28;20226;-88
2022/06/02 11:56:21;;;;;;;2.43;1.97;;;19.50;99.90;;;;;;5036469;28;20220;-88
2022/06/02 11:59:24;;;;;;;2.83;2.00;;;19.80;99.90;;;;;;5036994;28;20285;-84
2022/06/02 12:02:10;;;;;;;1.87;1.50;;;19.80;99.90;;;;;;5035695;28;20210;-89
2022/06/02 12:05:06;;;;;;;2.03;1.80;;;20.00;99.90;;;;;;5035722;28;20697;-88
2022/06/02 12:08:12;;;;;;;1.70;1.60;;;20.10;99.90;;;;;;5036480;28;20249;-88
2022/06/02 12:11:15;;;;;;;3.07;2.40;;;19.90;99.90;;;;;;5035871;28;20213;-87
2022/06/02 12:13:55;;;;;;;2.70;1.93;;;20.10;99.90;;;;;;5035939;28;20217;-87
2022/06/02 12:16:39;;;;;;;1.60;1.50;;;19.80;99.90;;;;;;5035847;28;20218;-88
2022/06/02 12:19:25;;;;;;;3.47;1.93;;;19.90;99.90;;;;;;5035905;28;20210;-87
2022/06/02 12:22:09;;;;;;;2.37;1.90;;;20.00;99.90;;;;;;5035982;28;20234;-87
2022/06/02 12:24:52;;;;;;;2.70;1.77;;;20.30;99.90;;;;;;5039116;28;20207;-88
2022/06/02 12:28:11;;;;;;;2.40;1.60;;;20.10;99.90;;;;;;5035391;28;20203;-91
2022/06/02 12:30:50;;;;;;;1.70;1.60;;;20.30;99.90;;;;;;4956311;29;20213;-91
2022/06/02 12:33:31;;;;;;;3.47;1.87;;;20.40;99.90;;;;;;4956149;29;20225;-90
2022/06/02 12:36:12;;;;;;;2.60;1.83;;;20.60;99.90;;;;;;5006307;28;20292;-89
2022/06/02 12:39:24;;;;;;;1.93;1.80;;;20.50;99.90;;;;;;5036609;28;20658;-90
2022/06/02 12:42:41;;;;;;;2.30;1.60;;;20.60;99.90;;;;;;4956357;29;20217;-88
2022/06/02 12:45:32;;;;;;;2.13;1.93;;;20.90;99.90;;;;;;5036436;28;20207;-91
2022/06/02 12:48:46;;;;;;;1.57;1.47;;;20.80;99.90;;;;;;5036004;28;20214;-90
2022/06/02 12:51:44;;;;;;;2.30;1.80;;;20.50;99.90;;;;;;5036760;28;20247;-90
2022/06/02 12:54:55;;;;;;;2.13;2.00;;;20.70;99.90;;;;;;5020735;28;20207;-88
2022/06/02 12:57:53;;;;;;;2.10;1.80;;;20.90;99.90;;;;;;5022170;28;20765;-90
2022/06/02 13:00:44;;;;;;;1.70;1.60;;;20.70;99.90;;;;;;5007499;28;20301;-89
2022/06/02 13:03:46;;;;;;;1.90;1.30;;;20.80;99.90;;;;;;5035792;28;20206;-90
2022/06/02 13:06:41;;;;;;;1.70;1.60;;;21.00;99.90;;;;;;5035225;28;20303;-89
2022/06/02 13:09:41;;;;;;;1.50;1.40;;;21.00;99.90;;;;;;5035518;28;20217;-89
2022/06/02 13:12:40;;;;;;;2.13;1.80;;;21.00;99.90;;;;;;5018736;28;20226;-90
2022/06/02 13:15:38;;;;;;;2.10;1.90;;;21.10;99.90;;;;;;5035911;28;20213;-87
2022/06/02 13:18:36;;;;;;;3.47;2.10;;;21.50;99.90;;;;;;5028575;28;20222;-89
2022/06/02 13:21:53;;;;;;;2.27;2.07;;;22.50;99.90;;;;;;5046339;28;20210;-90
2022/06/02 13:24:50;;;;;;;3.07;1.90;;;22.90;99.20;;;;;;5035195;28;20221;-90
2022/06/02 13:27:46;;;;;;;3.10;1.60;;;24.10;98.10;;;;;;5042045;28;20217;-93
2022/06/02 13:30:30;;;;;;;1.90;1.40;;;23.90;96.30;;;;;;5043551;28;20218;-93
2022/06/02 13:33:39;;;;;;;1.20;1.10;;;24.50;95.80;;;;;;5039382;28;20313;-93
2022/06/02 13:36:27;;;;;;;1.50;1.40;;;24.40;95.30;;;;;;5037229;28;20219;-92
2022/06/02 13:39:35;;;;;;;4.53;1.40;;;24.50;95.50;;;;;;5035004;28;20685;-91
2022/06/02 13:42:36;;;;;;;2.53;1.60;;;25.80;93.90;;;;;;5035138;28;20207;-92
2022/06/02 13:45:39;;;;;;;2.85;1.45;;;25.80;93.10;;;;;;5036174;28;20210;-91
2022/06/02 13:48:52;;;;;;;2.05;1.42;;;25.70;94.00;;;;;;5015542;28;20570;-84
2022/06/02 13:51:56;;;;;;;2.00;1.55;;;26.90;92.30;;;;;;5031469;28;20195;-93
2022/06/02 13:58:09;;;;;;;3.33;1.60;;;26.60;91.20;;;;;;4974048;28;20207;-91
2022/06/02 14:01:02;;;;;;;2.78;1.40;;;25.70;91.30;;;;;;5018543;28;20238;-91
2022/06/02 14:03:56;;;;;;;2.33;1.38;;;26.00;91.00;;;;;;5044432;28;20281;-86
2022/06/02 14:06:26;;;;;;;2.45;1.70;;;26.00;91.00;;;;;;5032964;28;20211;-91
2022/06/02 14:09:14;;;;;;;1.98;1.40;;;26.20;90.50;;;;;;5033809;28;20203;-91
2022/06/02 14:11:50;;;;;;;1.70;1.60;;;25.50;90.60;;;;;;5034178;28;20206;-91
2022/06/02 14:14:46;;;;;;;1.83;1.60;;;25.40;90.70;;;;;;5041422;28;20914;-90
2022/06/02 14:17:24;;;;;;;1.90;1.70;;;26.30;90.50;;;;;;5033360;28;20218;-92
2022/06/02 14:20:05;;;;;;;2.78;1.60;;;26.70;89.60;;;;;;5033090;28;20210;-92
2022/06/02 14:22:48;;;;;;;1.83;1.70;;;25.40;90.80;;;;;;5034587;28;20207;-91
2022/06/02 14:25:26;;;;;;;1.73;1.33;;;26.30;89.40;;;;;;5032382;28;20229;-91